Weather at Näsinge Airfield

Public forecast

Using degrees Celsius for public forecast. Weather courtesy of forecast.io.

Closest aviation weather report (METAR) to Näsinge Airfield

Closest report is Moss Airport, Rygge, 27.7 nm (51.3 km) NW.

2024/05/28 15:50 (retrieved 13 minutes ago)

ENRY 281550Z 08008KT 9999 -RA BKN066 20/12 Q1009

Closest aviation forecast (TAF) to Näsinge Airfield

Closest forecast is Moss Airport, Rygge, 27.7 nm (51.3 km) NW.

2024/05/28 14:36 Ammendment (retrieved 1 hour ago)

TAF AMD ENRY 281426Z 2814/2912 12008KT 9999 -SHRA SCT030TCU BKN050 TEMPO 2815/2819 3000 SHRA TS BKN014 SCT025CB BECMG 2819/2821 20010KT PROB40 2819/2906 BKN008